sensor_id;sensor_type;location;lat;lon;timestamp;pressure;altitude;pressure_sealevel;temperature;humidity
70304;BME280;57712;48.752;11.348;2023-02-13T00:01:55;99535.09;;;1.35;100.00
70304;BME280;57712;48.752;11.348;2023-02-13T00:04:21;99541.97;;;1.41;100.00
70304;BME280;57712;48.752;11.348;2023-02-13T00:06:48;99543.09;;;1.40;100.00
70304;BME280;57712;48.752;11.348;2023-02-13T00:09:15;99547.69;;;1.39;100.00
70304;BME280;57712;48.752;11.348;2023-02-13T00:11:41;99538.78;;;1.39;100.00
70304;BME280;57712;48.752;11.348;2023-02-13T00:14:08;99534.84;;;1.45;100.00
70304;BME280;57712;48.752;11.348;2023-02-13T00:16:35;99539.44;;;1.44;100.00
70304;BME280;57712;48.752;11.348;2023-02-13T00:19:02;99541.00;;;1.37;100.00
70304;BME280;57712;48.752;11.348;2023-02-13T00:21:28;99525.38;;;1.25;100.00
70304;BME280;57712;48.752;11.348;2023-02-13T00:23:55;99527.25;;;1.25;100.00
70304;BME280;57712;48.752;11.348;2023-02-13T00:26:22;99521.84;;;1.25;100.00
70304;BME280;57712;48.752;11.348;2023-02-13T00:28:48;99524.75;;;1.28;100.00
70304;BME280;57712;48.752;11.348;2023-02-13T00:31:18;99518.97;;;1.21;100.00
70304;BME280;57712;48.752;11.348;2023-02-13T00:33:45;99521.00;;;1.15;100.00
70304;BME280;57712;48.752;11.348;2023-02-13T00:36:15;99527.31;;;1.33;100.00
70304;BME280;57712;48.752;11.348;2023-02-13T00:38:42;99518.56;;;1.28;100.00
70304;BME280;57712;48.752;11.348;2023-02-13T00:41:09;99514.38;;;1.22;100.00
70304;BME280;57712;48.752;11.348;2023-02-13T00:43:37;99518.19;;;1.21;100.00
70304;BME280;57712;48.752;11.348;2023-02-13T00:46:04;99525.91;;;1.36;100.00
70304;BME280;57712;48.752;11.348;2023-02-13T00:48:32;99523.50;;;1.34;100.00
70304;BME280;57712;48.752;11.348;2023-02-13T00:50:59;99523.50;;;1.34;100.00
70304;BME280;57712;48.752;11.348;2023-02-13T00:53:26;99522.47;;;1.22;100.00
70304;BME280;57712;48.752;11.348;2023-02-13T00:55:53;99521.84;;;1.25;100.00
70304;BME280;57712;48.752;11.348;2023-02-13T00:58:20;99519.78;;;1.22;100.00
70304;BME280;57712;48.752;11.348;2023-02-13T01:00:46;99521.91;;;1.33;100.00
70304;BME280;57712;48.752;11.348;2023-02-13T01:03:14;99520.78;;;1.26;100.00
70304;BME280;57712;48.752;11.348;2023-02-13T01:05:42;99526.16;;;1.26;100.00
70304;BME280;57712;48.752;11.348;2023-02-13T01:08:10;99525.72;;;1.32;100.00
70304;BME280;57712;48.752;11.348;2023-02-13T01:10:38;99528.50;;;1.19;100.00
70304;BME280;57712;48.752;11.348;2023-02-13T01:13:05;99534.91;;;1.31;100.00
70304;BME280;57712;48.752;11.348;2023-02-13T01:15:32;99530.94;;;1.29;100.00
70304;BME280;57712;48.752;11.348;2023-02-13T01:17:59;99533.88;;;1.19;100.00
70304;BME280;57712;48.752;11.348;2023-02-13T01:20:27;99530.38;;;1.18;100.00
70304;BME280;57712;48.752;11.348;2023-02-13T01:22:54;99527.50;;;1.14;100.00
70304;BME280;57712;48.752;11.348;2023-02-13T01:25:21;99530.88;;;1.20;100.00
70304;BME280;57712;48.752;11.348;2023-02-13T01:27:48;99534.75;;;1.05;100.00
70304;BME280;57712;48.752;11.348;2023-02-13T01:30:15;99529.28;;;0.97;100.00
70304;BME280;57712;48.752;11.348;2023-02-13T01:32:44;99538.41;;;0.87;100.00
70304;BME280;57712;48.752;11.348;2023-02-13T01:35:11;99527.69;;;0.82;100.00
70304;BME280;57712;48.752;11.348;2023-02-13T01:37:40;99530.69;;;0.94;100.00
70304;BME280;57712;48.752;11.348;2023-02-13T01:40:09;99527.84;;;0.99;100.00
70304;BME280;57712;48.752;11.348;2023-02-13T01:42:36;99535.06;;;0.90;100.00
70304;BME280;57712;48.752;11.348;2023-02-13T01:45:29;99539.28;;;0.96;100.00
70304;BME280;57712;48.752;11.348;2023-02-13T01:48:02;99535.78;;;0.96;100.00
70304;BME280;57712;48.752;11.348;2023-02-13T01:50:35;99531.41;;;0.86;100.00
70304;BME280;57712;48.752;11.348;2023-02-13T01:55:41;99536.91;;;0.81;100.00
70304;BME280;57712;48.752;11.348;2023-02-13T01:58:13;99531.50;;;0.81;100.00
70304;BME280;57712;48.752;11.348;2023-02-13T02:00:41;99539.50;;;0.86;100.00
70304;BME280;57712;48.752;11.348;2023-02-13T02:03:13;99527.28;;;0.89;100.00
70304;BME280;57712;48.752;11.348;2023-02-13T02:05:40;99525.94;;;0.77;100.00
70304;BME280;57712;48.752;11.348;2023-02-13T02:08:09;99521.94;;;0.75;100.00
70304;BME280;57712;48.752;11.348;2023-02-13T02:10:37;99520.31;;;0.88;100.00
70304;BME280;57712;48.752;11.348;2023-02-13T02:13:09;99521.34;;;0.78;100.00
70304;BME280;57712;48.752;11.348;2023-02-13T02:15:37;99510.16;;;0.71;100.00
70304;BME280;57712;48.752;11.348;2023-02-13T02:18:21;99521.75;;;0.71;100.00
70304;BME280;57712;48.752;11.348;2023-02-13T02:26:32;99513.41;;;0.81;100.00
70304;BME280;57712;48.752;11.348;2023-02-13T02:32:04;99501.16;;;0.75;100.00
70304;BME280;57712;48.752;11.348;2023-02-13T02:34:50;99499.97;;;0.68;100.00
70304;BME280;57712;48.752;11.348;2023-02-13T02:45:53;99505.28;;;0.59;100.00
70304;BME280;57712;48.752;11.348;2023-02-13T02:48:34;99509.19;;;0.67;100.00
70304;BME280;57712;48.752;11.348;2023-02-13T02:54:12;99496.78;;;0.66;100.00
70304;BME280;57712;48.752;11.348;2023-02-13T02:57:20;99501.53;;;0.46;100.00
70304;BME280;57712;48.752;11.348;2023-02-13T02:59:50;99495.03;;;0.47;100.00
70304;BME280;57712;48.752;11.348;2023-02-13T03:02:37;99498.03;;;0.46;100.00
70304;BME280;57712;48.752;11.348;2023-02-13T03:05:28;99497.81;;;0.56;100.00
70304;BME280;57712;48.752;11.348;2023-02-13T03:08:15;99509.22;;;0.53;100.00
70304;BME280;57712;48.752;11.348;2023-02-13T03:11:02;99509.72;;;0.41;100.00
70304;BME280;57712;48.752;11.348;2023-02-13T03:13:48;99505.63;;;0.44;100.00
70304;BME280;57712;48.752;11.348;2023-02-13T03:16:22;99501.63;;;0.41;100.00
70304;BME280;57712;48.752;11.348;2023-02-13T03:19:30;99503.63;;;0.49;100.00
70304;BME280;57712;48.752;11.348;2023-02-13T03:22:45;99512.81;;;0.48;100.00
70304;BME280;57712;48.752;11.348;2023-02-13T03:28:40;99517.97;;;0.58;100.00
70304;BME280;57712;48.752;11.348;2023-02-13T03:31:35;99513.59;;;0.49;100.00
70304;BME280;57712;48.752;11.348;2023-02-13T03:34:10;99525.81;;;0.33;100.00
70304;BME280;57712;48.752;11.348;2023-02-13T03:42:22;99514.59;;;0.39;100.00
70304;BME280;57712;48.752;11.348;2023-02-13T03:45:02;99512.81;;;0.48;100.00
70304;BME280;57712;48.752;11.348;2023-02-13T03:47:51;99509.22;;;0.39;100.00
70304;BME280;57712;48.752;11.348;2023-02-13T03:50:19;99512.81;;;0.48;100.00
70304;BME280;57712;48.752;11.348;2023-02-13T03:53:02;99511.69;;;0.49;100.00
70304;BME280;57712;48.752;11.348;2023-02-13T03:55:37;99519.22;;;0.25;100.00
70304;BME280;57712;48.752;11.348;2023-02-13T03:58:31;99529.63;;;0.32;100.00
70304;BME280;57712;48.752;11.348;2023-02-13T04:01:21;99536.00;;;0.36;100.00
70304;BME280;57712;48.752;11.348;2023-02-13T04:04:07;99533.19;;;0.27;100.00
70304;BME280;57712;48.752;11.348;2023-02-13T04:06:47;99533.38;;;0.44;100.00
70304;BME280;57712;48.752;11.348;2023-02-13T04:09:15;99536.28;;;0.34;100.00
70304;BME280;57712;48.752;11.348;2023-02-13T04:11:52;99529.78;;;0.49;100.00
70304;BME280;57712;48.752;11.348;2023-02-13T04:14:42;99530.47;;;0.54;100.00
70304;BME280;57712;48.752;11.348;2023-02-13T04:17:20;99532.88;;;0.56;100.00
70304;BME280;57712;48.752;11.348;2023-02-13T04:19:49;99535.75;;;0.60;100.00
70304;BME280;57712;48.752;11.348;2023-02-13T04:22:16;99525.97;;;0.64;100.00
70304;BME280;57712;48.752;11.348;2023-02-13T04:24:43;99522.66;;;0.67;100.00
70304;BME280;57712;48.752;11.348;2023-02-13T04:27:13;99526.47;;;0.66;100.00
70304;BME280;57712;48.752;11.348;2023-02-13T04:29:40;99520.06;;;0.62;100.00
70304;BME280;57712;48.752;11.348;2023-02-13T04:32:09;99519.97;;;0.67;100.00
70304;BME280;57712;48.752;11.348;2023-02-13T04:34:36;99533.75;;;0.51;100.00
70304;BME280;57712;48.752;11.348;2023-02-13T04:37:03;99533.19;;;0.54;100.00
70304;BME280;57712;48.752;11.348;2023-02-13T04:39:29;99525.06;;;0.68;100.00
70304;BME280;57712;48.752;11.348;2023-02-13T04:41:56;99526.38;;;0.57;100.00
70304;BME280;57712;48.752;11.348;2023-02-13T04:44:23;99530.34;;;0.60;100.00
70304;BME280;57712;48.752;11.348;2023-02-13T04:46:49;99531.59;;;0.53;100.00
70304;BME280;57712;48.752;11.348;2023-02-13T04:49:16;99522.59;;;0.44;100.00
70304;BME280;57712;48.752;11.348;2023-02-13T04:51:42;99522.75;;;0.62;100.00
70304;BME280;57712;48.752;11.348;2023-02-13T04:54:10;99536.16;;;0.67;100.00
70304;BME280;57712;48.752;11.348;2023-02-13T04:56:36;99534.97;;;0.45;100.00
70304;BME280;57712;48.752;11.348;2023-02-13T04:59:03;99535.16;;;0.49;100.00
70304;BME280;57712;48.752;11.348;2023-02-13T05:01:29;99536.19;;;0.53;100.00
70304;BME280;57712;48.752;11.348;2023-02-13T05:03:56;99538.97;;;0.20;100.00
70304;BME280;57712;48.752;11.348;2023-02-13T05:06:23;99529.31;;;0.33;100.00
70304;BME280;57712;48.752;11.348;2023-02-13T05:08:49;99530.19;;;0.42;100.00
70304;BME280;57712;48.752;11.348;2023-02-13T05:11:16;99538.59;;;0.27;100.00
70304;BME280;57712;48.752;11.348;2023-02-13T05:13:42;99539.19;;;0.38;100.00
70304;BME280;57712;48.752;11.348;2023-02-13T05:16:09;99543.19;;;0.26;100.00
70304;BME280;57712;48.752;11.348;2023-02-13T05:18:35;99553.34;;;0.29;100.00
70304;BME280;57712;48.752;11.348;2023-02-13T05:21:02;99552.75;;;0.19;100.00
70304;BME280;57712;48.752;11.348;2023-02-13T05:23:47;99547.75;;;0.40;100.00
70304;BME280;57712;48.752;11.348;2023-02-13T05:26:14;99540.09;;;0.33;100.00
70304;BME280;57712;48.752;11.348;2023-02-13T05:28:40;99539.78;;;0.35;100.00
70304;BME280;57712;48.752;11.348;2023-02-13T05:31:26;99539.19;;;0.24;100.00
70304;BME280;57712;48.752;11.348;2023-02-13T05:33:52;99541.88;;;0.24;100.00
70304;BME280;57712;48.752;11.348;2023-02-13T05:36:19;99535.41;;;0.25;100.00
70304;BME280;57712;48.752;11.348;2023-02-13T05:38:46;99535.59;;;0.15;100.00
70304;BME280;57712;48.752;11.348;2023-02-13T05:41:12;99539.81;;;0.21;100.00
70304;BME280;57712;48.752;11.348;2023-02-13T05:43:39;99546.97;;;0.25;100.00
70304;BME280;57712;48.752;11.348;2023-02-13T05:46:07;99542.38;;;0.26;100.00
70304;BME280;57712;48.752;11.348;2023-02-13T05:48:35;99542.38;;;0.26;100.00
70304;BME280;57712;48.752;11.348;2023-02-13T05:51:01;99548.75;;;0.30;100.00
70304;BME280;57712;48.752;11.348;2023-02-13T05:53:28;99553.16;;;0.26;100.00
70304;BME280;57712;48.752;11.348;2023-02-13T05:55:55;99541.56;;;0.39;100.00
70304;BME280;57712;48.752;11.348;2023-02-13T05:58:21;99549.97;;;0.24;100.00
70304;BME280;57712;48.752;11.348;2023-02-13T06:00:48;99549.75;;;0.07;100.00
70304;BME280;57712;48.752;11.348;2023-02-13T06:03:14;99556.34;;;0.14;100.00
70304;BME280;57712;48.752;11.348;2023-02-13T06:05:41;99564.53;;;0.23;100.00
70304;BME280;57712;48.752;11.348;2023-02-13T06:08:08;99554.94;;;0.31;100.00
70304;BME280;57712;48.752;11.348;2023-02-13T06:10:34;99571.53;;;0.24;100.00
70304;BME280;57712;48.752;11.348;2023-02-13T06:13:00;99570.94;;;0.27;100.00
70304;BME280;57712;48.752;11.348;2023-02-13T06:15:28;99571.91;;;0.31;100.00
70304;BME280;57712;48.752;11.348;2023-02-13T06:17:54;99580.53;;;0.33;100.00
70304;BME280;57712;48.752;11.348;2023-02-13T06:20:21;99576.31;;;0.41;100.00
70304;BME280;57712;48.752;11.348;2023-02-13T06:22:49;99581.09;;;0.30;100.00
70304;BME280;57712;48.752;11.348;2023-02-13T06:25:16;99580.22;;;0.35;100.00
70304;BME280;57712;48.752;11.348;2023-02-13T06:27:43;99588.59;;;0.33;100.00
70304;BME280;57712;48.752;11.348;2023-02-13T06:30:10;99586.91;;;0.37;100.00
70304;BME280;57712;48.752;11.348;2023-02-13T06:32:37;99587.31;;;0.44;100.00
70304;BME280;57712;48.752;11.348;2023-02-13T06:35:04;99584.91;;;0.43;100.00
70304;BME280;57712;48.752;11.348;2023-02-13T06:37:31;99586.00;;;0.55;100.00
70304;BME280;57712;48.752;11.348;2023-02-13T06:39:58;99597.47;;;0.47;100.00
70304;BME280;57712;48.752;11.348;2023-02-13T06:42:24;99597.06;;;0.40;100.00
70304;BME280;57712;48.752;11.348;2023-02-13T06:44:51;99598.84;;;0.31;100.00
70304;BME280;57712;48.752;11.348;2023-02-13T06:47:18;99593.88;;;0.38;100.00
70304;BME280;57712;48.752;11.348;2023-02-13T06:49:44;99598.06;;;0.17;100.00
70304;BME280;57712;48.752;11.348;2023-02-13T06:52:11;99606.94;;;0.31;100.00
70304;BME280;57712;48.752;11.348;2023-02-13T06:54:37;99610.75;;;0.30;100.00
70304;BME280;57712;48.752;11.348;2023-02-13T06:57:13;99611.47;;;0.22;100.00
70304;BME280;57712;48.752;11.348;2023-02-13T06:59:40;99615.03;;;0.17;100.00
70304;BME280;57712;48.752;11.348;2023-02-13T07:02:10;99619.53;;;0.22;100.00
70304;BME280;57712;48.752;11.348;2023-02-13T07:04:37;99623.03;;;0.22;100.00
70304;BME280;57712;48.752;11.348;2023-02-13T07:07:04;99617.16;;;0.34;100.00
70304;BME280;57712;48.752;11.348;2023-02-13T07:09:32;99618.81;;;0.30;100.00
70304;BME280;57712;48.752;11.348;2023-02-13T07:12:02;99626.84;;;0.21;100.00
70304;BME280;57712;48.752;11.348;2023-02-13T07:14:28;99624.00;;;0.13;100.00
70304;BME280;57712;48.752;11.348;2023-02-13T07:16:56;99617.22;;;0.15;100.00
70304;BME280;57712;48.752;11.348;2023-02-13T07:19:22;99624.81;;;0.13;100.00
70304;BME280;57712;48.752;11.348;2023-02-13T07:21:48;99621.31;;;0.13;100.00
70304;BME280;57712;48.752;11.348;2023-02-13T07:24:15;99625.19;;;0.07;100.00
70304;BME280;57712;48.752;11.348;2023-02-13T07:26:42;99628.69;;;0.07;100.00
70304;BME280;57712;48.752;11.348;2023-02-13T07:29:09;99628.81;;;0.16;100.00
70304;BME280;57712;48.752;11.348;2023-02-13T07:31:37;99632.41;;;0.25;100.00
70304;BME280;57712;48.752;11.348;2023-02-13T07:34:05;99632.00;;;0.18;100.00
70304;BME280;57712;48.752;11.348;2023-02-13T07:36:31;99634.31;;;0.11;100.00
70304;BME280;57712;48.752;11.348;2023-02-13T07:38:58;99636.50;;;0.36;100.00
70304;BME280;57712;48.752;11.348;2023-02-13T07:41:24;99641.09;;;0.22;100.00
70304;BME280;57712;48.752;11.348;2023-02-13T07:43:53;99639.22;;;0.36;100.00
70304;BME280;57712;48.752;11.348;2023-02-13T07:46:20;99638.59;;;0.39;100.00
70304;BME280;57712;48.752;11.348;2023-02-13T07:48:46;99636.72;;;0.53;100.00
70304;BME280;57712;48.752;11.348;2023-02-13T07:51:13;99635.22;;;0.61;100.00
70304;BME280;57712;48.752;11.348;2023-02-13T07:53:40;99633.31;;;0.62;100.00
70304;BME280;57712;48.752;11.348;2023-02-13T07:56:08;99629.94;;;0.56;100.00
70304;BME280;57712;48.752;11.348;2023-02-13T07:58:36;99625.75;;;0.64;100.00
70304;BME280;57712;48.752;11.348;2023-02-13T08:01:10;99634.31;;;0.66;100.00
70304;BME280;57712;48.752;11.348;2023-02-13T08:03:37;99633.63;;;0.74;100.00
70304;BME280;57712;48.752;11.348;2023-02-13T08:06:05;99637.09;;;0.61;100.00
70304;BME280;57712;48.752;11.348;2023-02-13T08:08:32;99628.53;;;0.58;100.00
70304;BME280;57712;48.752;11.348;2023-02-13T08:11:04;99627.03;;;0.52;100.00
70304;BME280;57712;48.752;11.348;2023-02-13T08:13:50;99624.66;;;0.65;100.00
70304;BME280;57712;48.752;11.348;2023-02-13T08:16:17;99635.22;;;0.75;100.00
70304;BME280;57712;48.752;11.348;2023-02-13T08:18:44;99626.44;;;0.69;100.00
70304;BME280;57712;48.752;11.348;2023-02-13T08:21:11;99631.22;;;0.72;100.00
70304;BME280;57712;48.752;11.348;2023-02-13T08:23:37;99640.31;;;0.76;100.00
70304;BME280;57712;48.752;11.348;2023-02-13T08:26:04;99639.41;;;0.81;100.00
70304;BME280;57712;48.752;11.348;2023-02-13T08:28:30;99639.41;;;0.81;100.00
70304;BME280;57712;48.752;11.348;2023-02-13T08:30:57;99640.00;;;0.78;100.00
70304;BME280;57712;48.752;11.348;2023-02-13T08:33:23;99632.44;;;0.66;100.00
70304;BME280;57712;48.752;11.348;2023-02-13T08:35:50;99640.91;;;0.60;100.00
70304;BME280;57712;48.752;11.348;2023-02-13T08:38:17;99636.41;;;0.69;100.00
70304;BME280;57712;48.752;11.348;2023-02-13T08:40:43;99647.97;;;0.83;100.00
70304;BME280;57712;48.752;11.348;2023-02-13T08:43:10;99645.00;;;0.71;100.00
70304;BME280;57712;48.752;11.348;2023-02-13T08:45:36;99641.19;;;0.72;100.00
70304;BME280;57712;48.752;11.348;2023-02-13T08:48:03;99643.59;;;0.87;100.00
70304;BME280;57712;48.752;11.348;2023-02-13T08:50:30;99644.78;;;0.81;100.00
70304;BME280;57712;48.752;11.348;2023-02-13T08:52:57;99640.97;;;1.09;100.00
70304;BME280;57712;48.752;11.348;2023-02-13T08:55:25;99636.19;;;1.06;100.00
70304;BME280;57712;48.752;11.348;2023-02-13T08:57:52;99641.53;;;1.20;100.00
70304;BME280;57712;48.752;11.348;2023-02-13T09:00:19;99637.13;;;1.24;100.00
70304;BME280;57712;48.752;11.348;2023-02-13T09:02:46;99640.13;;;1.23;100.00
70304;BME280;57712;48.752;11.348;2023-02-13T09:05:13;99639.16;;;1.19;100.00
70304;BME280;57712;48.752;11.348;2023-02-13T09:07:39;99634.50;;;1.33;100.00
70304;BME280;57712;48.752;11.348;2023-02-13T09:10:06;99643.09;;;1.35;100.00
70304;BME280;57712;48.752;11.348;2023-02-13T09:12:33;99642.81;;;0.86;100.00
70304;BME280;57712;48.752;11.348;2023-02-13T09:14:59;99649.19;;;1.04;100.00
70304;BME280;57712;48.752;11.348;2023-02-13T09:17:26;99645.16;;;1.15;100.00
70304;BME280;57712;48.752;11.348;2023-02-13T09:19:52;99639.75;;;1.15;100.00
70304;BME280;57712;48.752;11.348;2023-02-13T09:22:19;99645.28;;;1.47;100.00
70304;BME280;57712;48.752;11.348;2023-02-13T09:24:45;99647.72;;;1.21;100.00
70304;BME280;57712;48.752;11.348;2023-02-13T09:27:12;99653.28;;;1.38;100.00
70304;BME280;57712;48.752;11.348;2023-02-13T09:29:39;99653.53;;;1.28;100.00
70304;BME280;57712;48.752;11.348;2023-02-13T09:32:05;99652.06;;;1.44;100.00
70304;BME280;57712;48.752;11.348;2023-02-13T09:34:32;99651.13;;;1.26;100.00
70304;BME280;57712;48.752;11.348;2023-02-13T09:36:58;99645.13;;;1.29;100.00
70304;BME280;57712;48.752;11.348;2023-02-13T09:39:25;99657.22;;;1.54;100.00
70304;BME280;57712;48.752;11.348;2023-02-13T09:41:52;99660.47;;;1.42;100.00
70304;BME280;57712;48.752;11.348;2023-02-13T09:44:31;99652.69;;;1.41;100.00
70304;BME280;57712;48.752;11.348;2023-02-13T09:47:05;99655.31;;;1.55;100.00
70304;BME280;57712;48.752;11.348;2023-02-13T09:49:36;99655.84;;;1.57;100.00
70304;BME280;57712;48.752;11.348;2023-02-13T09:52:03;99651.81;;;1.54;100.00
70304;BME280;57712;48.752;11.348;2023-02-13T09:54:30;99663.03;;;1.11;100.00
70304;BME280;57712;48.752;11.348;2023-02-13T10:05:45;99650.84;;;1.50;100.00
70304;BME280;57712;48.752;11.348;2023-02-13T10:11:03;99653.22;;;1.88;100.00
70304;BME280;57712;48.752;11.348;2023-02-13T10:13:55;99649.06;;;1.45;100.00
70304;BME280;57712;48.752;11.348;2023-02-13T10:16:29;99658.94;;;1.28;100.00
70304;BME280;57712;48.752;11.348;2023-02-13T10:19:02;99653.00;;;1.62;100.00
70304;BME280;57712;48.752;11.348;2023-02-13T10:21:36;99655.47;;;1.94;100.00
70304;BME280;57712;48.752;11.348;2023-02-13T10:24:06;99657.00;;;1.64;100.00
70304;BME280;57712;48.752;11.348;2023-02-13T10:26:38;99655.53;;;1.81;100.00
70304;BME280;57712;48.752;11.348;2023-02-13T10:29:17;99657.00;;;2.09;100.00
70304;BME280;57712;48.752;11.348;2023-02-13T10:32:08;99653.50;;;1.86;100.00
70304;BME280;57712;48.752;11.348;2023-02-13T10:34:41;99648.63;;;1.97;100.00
70304;BME280;57712;48.752;11.348;2023-02-13T10:37:13;99649.22;;;2.16;100.00
70304;BME280;57712;48.752;11.348;2023-02-13T10:39:42;99644.66;;;2.25;100.00
70304;BME280;57712;48.752;11.348;2023-02-13T10:45:20;99641.06;;;2.39;100.00
70304;BME280;57712;48.752;11.348;2023-02-13T10:50:38;99642.63;;;2.00;100.00
70304;BME280;57712;48.752;11.348;2023-02-13T10:55:53;99634.00;;;1.98;100.00
70304;BME280;57712;48.752;11.348;2023-02-13T11:01:41;99628.22;;;2.13;100.00
70304;BME280;57712;48.752;11.348;2023-02-13T11:04:14;99625.41;;;1.96;100.00
70304;BME280;57712;48.752;11.348;2023-02-13T11:07:03;99625.53;;;2.13;100.00
70304;BME280;57712;48.752;11.348;2023-02-13T11:09:37;99629.16;;;2.09;100.00
70304;BME280;57712;48.752;11.348;2023-02-13T11:15:06;99628.25;;;1.91;100.00
70304;BME280;57712;48.752;11.348;2023-02-13T11:17:39;99626.63;;;2.12;100.00
70304;BME280;57712;48.752;11.348;2023-02-13T11:20:56;99636.59;;;2.34;100.00
70304;BME280;57712;48.752;11.348;2023-02-13T11:22:55;99629.38;;;2.21;100.00
70304;BME280;57712;48.752;11.348;2023-02-13T11:25:27;99629.28;;;2.35;100.00
70304;BME280;57712;48.752;11.348;2023-02-13T11:28:09;99623.16;;;2.60;100.00
70304;BME280;57712;48.752;11.348;2023-02-13T11:30:42;99624.81;;;2.30;100.00
70304;BME280;57712;48.752;11.348;2023-02-13T11:33:26;99625.63;;;2.30;100.00
70304;BME280;57712;48.752;11.348;2023-02-13T11:36:24;99617.75;;;2.60;100.00
70304;BME280;57712;48.752;11.348;2023-02-13T11:39:18;99617.56;;;2.48;100.00
70304;BME280;57712;48.752;11.348;2023-02-13T11:41:46;99620.31;;;2.65;100.00
70304;BME280;57712;48.752;11.348;2023-02-13T11:44:25;99620.16;;;2.62;100.00
70304;BME280;57712;48.752;11.348;2023-02-13T11:46:56;99614.78;;;2.79;100.00
70304;BME280;57712;48.752;11.348;2023-02-13T11:49:25;99614.94;;;2.74;100.00
70304;BME280;57712;48.752;11.348;2023-02-13T11:51:54;99615.06;;;2.69;100.00
70304;BME280;57712;48.752;11.348;2023-02-13T11:54:28;99621.03;;;2.97;100.00
70304;BME280;57712;48.752;11.348;2023-02-13T11:56:58;99626.09;;;2.72;100.00
70304;BME280;57712;48.752;11.348;2023-02-13T11:59:38;99622.41;;;2.68;100.00
70304;BME280;57712;48.752;11.348;2023-02-13T12:04:44;99621.34;;;2.86;100.00
70304;BME280;57712;48.752;11.348;2023-02-13T12:07:28;99624.53;;;2.88;100.00
70304;BME280;57712;48.752;11.348;2023-02-13T12:10:14;99619.75;;;2.85;100.00
70304;BME280;57712;48.752;11.348;2023-02-13T12:12:47;99618.63;;;2.86;100.00
70304;BME280;57712;48.752;11.348;2023-02-13T12:15:26;99621.38;;;3.04;100.00
70304;BME280;57712;48.752;11.348;2023-02-13T12:18:28;99619.94;;;2.98;100.00
70304;BME280;57712;48.752;11.348;2023-02-13T12:21:33;99617.97;;;2.81;100.00
70304;BME280;57712;48.752;11.348;2023-02-13T12:24:31;99612.75;;;3.02;100.00
70304;BME280;57712;48.752;11.348;2023-02-13T12:35:34;99613.69;;;2.71;100.00
70304;BME280;57712;48.752;11.348;2023-02-13T12:46:20;99590.94;;;2.98;100.00
70304;BME280;57712;48.752;11.348;2023-02-13T12:49:24;99594.13;;;3.00;100.00
70304;BME280;57712;48.752;11.348;2023-02-13T13:00:14;99579.94;;;3.64;100.00
70304;BME280;57712;48.752;11.348;2023-02-13T13:02:50;99579.19;;;3.55;100.00
70304;BME280;57712;48.752;11.348;2023-02-13T13:07:58;99575.34;;;3.56;100.00
70304;BME280;57712;48.752;11.348;2023-02-13T13:11:04;99576.16;;;3.47;100.00
70304;BME280;57712;48.752;11.348;2023-02-13T13:18:57;99569.25;;;3.76;100.00
70304;BME280;57712;48.752;11.348;2023-02-13T13:21:44;99566.38;;;3.64;100.00
70304;BME280;57712;48.752;11.348;2023-02-13T13:26:47;99568.97;;;3.43;100.00
70304;BME280;57712;48.752;11.348;2023-02-13T13:29:20;99559.88;;;3.56;100.00
70304;BME280;57712;48.752;11.348;2023-02-13T13:32:04;99567.81;;;3.70;100.00
70304;BME280;57712;48.752;11.348;2023-02-13T13:34:33;99568.66;;;3.44;100.00
70304;BME280;57712;48.752;11.348;2023-02-13T13:37:42;99571.84;;;3.46;100.00
70304;BME280;57712;48.752;11.348;2023-02-13T13:40:30;99574.88;;;3.19;100.00
70304;BME280;57712;48.752;11.348;2023-02-13T13:43:03;99566.56;;;3.50;100.00
70304;BME280;57712;48.752;11.348;2023-02-13T13:45:51;99561.16;;;3.41;100.00
70304;BME280;57712;48.752;11.348;2023-02-13T13:49:08;99572.31;;;3.57;100.00
70304;BME280;57712;48.752;11.348;2023-02-13T13:51:37;99569.56;;;3.74;100.00
70304;BME280;57712;48.752;11.348;2023-02-13T14:08:52;99555.06;;;3.62;100.00
70304;BME280;57712;48.752;11.348;2023-02-13T14:11:27;99554.13;;;3.58;100.00
70304;BME280;57712;48.752;11.348;2023-02-13T14:13:55;99548.38;;;3.68;100.00
70304;BME280;57712;48.752;11.348;2023-02-13T14:16:44;99550.56;;;3.83;100.00
70304;BME280;57712;48.752;11.348;2023-02-13T14:19:45;99556.66;;;3.63;100.00
70304;BME280;57712;48.752;11.348;2023-02-13T14:27:24;99551.09;;;3.68;100.00
70304;BME280;57712;48.752;11.348;2023-02-13T14:29:51;99547.06;;;3.74;100.00
70304;BME280;57712;48.752;11.348;2023-02-13T14:35:02;99535.00;;;3.63;100.00
70304;BME280;57712;48.752;11.348;2023-02-13T14:37:37;99540.81;;;3.91;100.00
70304;BME280;57712;48.752;11.348;2023-02-13T14:42:47;99533.22;;;3.75;100.00
70304;BME280;57712;48.752;11.348;2023-02-13T14:45:24;99535.75;;;3.72;100.00
70304;BME280;57712;48.752;11.348;2023-02-13T14:47:54;99531.75;;;3.87;100.00
70304;BME280;57712;48.752;11.348;2023-02-13T14:50:28;99542.91;;;3.85;100.00
70304;BME280;57712;48.752;11.348;2023-02-13T14:53:03;99538.94;;;3.83;100.00
70304;BME280;57712;48.752;11.348;2023-02-13T14:55:37;99538.13;;;3.82;100.00
70304;BME280;57712;48.752;11.348;2023-02-13T14:58:12;99538.75;;;3.96;100.00
70304;BME280;57712;48.752;11.348;2023-02-13T15:01:01;99537.44;;;4.02;100.00
70304;BME280;57712;48.752;11.348;2023-02-13T15:06:03;99542.88;;;3.94;100.00
70304;BME280;57712;48.752;11.348;2023-02-13T15:08:41;99537.78;;;3.92;100.00
70304;BME280;57712;48.752;11.348;2023-02-13T15:11:10;99540.97;;;3.94;100.00
70304;BME280;57712;48.752;11.348;2023-02-13T15:19:28;99540.38;;;3.80;100.00
70304;BME280;57712;48.752;11.348;2023-02-13T15:22:00;99534.47;;;3.87;100.00
70304;BME280;57712;48.752;11.348;2023-02-13T15:24:34;99534.94;;;3.80;100.00
70304;BME280;57712;48.752;11.348;2023-02-13T15:27:05;99530.00;;;3.82;100.00